Time;durP1;ratioP1;P1;durP2;ratioP2;P2;SDS_P1;SDS_P2;PMS_P1;PMS_P2;Temp;Humidity;BMP_temperature;BMP_pressure;BME280_temperature;BME280_humidity;BME280_pressure;Samples;Min_cycle;Max_cycle;Signal;HPM_P1;HPM_P2
2023/01/15 00:01:33;;;;;;;;;2.33;2.33;;;;;-147.17;100.00;-15917.19;5025234;28;51406;-55
2023/01/15 00:03:59;;;;;;;;;14.25;13.25;;;;;-147.17;100.00;-15917.19;5027437;28;51360;-55
2023/01/15 00:06:27;;;;;;;;;3.00;2.00;;;;;-147.17;100.00;-15917.19;5024377;28;52831;-55
2023/01/15 00:08:53;;;;;;;;;5.00;4.00;;;;;-147.17;100.00;-15917.19;5031791;28;52756;-56
2023/01/15 00:11:19;;;;;;;;;3.00;2.33;;;;;-147.17;100.00;-15917.19;5026811;28;54311;-54
2023/01/15 00:13:45;;;;;;;;;2.00;1.67;;;;;-147.17;100.00;-15917.19;5026665;27;52727;-55
2023/01/15 00:16:13;;;;;;;;;2.00;2.00;;;;;-147.17;100.00;-15917.19;5025326;28;52480;-55
2023/01/15 00:18:39;;;;;;;;;4.33;4.00;;;;;-147.17;100.00;-15917.19;5033746;28;53186;-55
2023/01/15 00:21:07;;;;;;;;;0.00;0.00;;;;;-147.17;100.00;-15917.19;5026063;28;51748;-54
2023/01/15 00:29:05;;;;;;;;;3.00;2.00;;;;;-147.17;100.00;-15917.19;5033960;28;51700;-54
2023/01/15 00:31:32;;;;;;;;;2.00;1.00;;;;;-147.17;100.00;-15917.19;5030639;28;52594;-54
2023/01/15 00:33:57;;;;;;;;;2.00;1.25;;;;;-147.17;100.00;-15917.19;5032434;28;51211;-53
2023/01/15 00:36:24;;;;;;;;;5.00;5.00;;;;;-147.17;100.00;-15917.19;5034944;28;51322;-54
2023/01/15 00:38:49;;;;;;;;;17.75;14.25;;;;;-147.17;100.00;-15917.19;5029155;28;51577;-55
2023/01/15 00:41:15;;;;;;;;;8.00;6.33;;;;;-147.17;100.00;-15917.19;5029736;28;51293;-53
2023/01/15 00:43:40;;;;;;;;;7.67;6.33;;;;;-147.17;100.00;-15917.19;5038859;28;53318;-56
2023/01/15 00:46:07;;;;;;;;;5.00;4.33;;;;;-147.17;100.00;-15917.19;5029785;28;51305;-53
2023/01/15 00:48:33;;;;;;;;;4.00;4.00;;;;;-147.17;100.00;-15917.19;5028959;28;51247;-55
2023/01/15 00:50:58;;;;;;;;;4.67;4.00;;;;;-147.17;100.00;-15917.19;5046621;27;52962;-55
2023/01/15 00:53:23;;;;;;;;;2.33;2.00;;;;;-147.17;100.00;-15917.19;5032881;28;51094;-55
2023/01/15 00:55:49;;;;;;;;;3.33;1.67;;;;;-147.17;100.00;-15917.19;5030597;28;52870;-56
2023/01/15 00:58:15;;;;;;;;;2.00;1.00;;;;;-147.17;100.00;-15917.19;5031776;28;51545;-56
2023/01/15 01:00:40;;;;;;;;;8.25;7.00;;;;;-147.17;100.00;-15917.19;5031135;28;52561;-57
2023/01/15 01:03:06;;;;;;;;;0.00;0.00;;;;;-147.17;100.00;-15917.19;5034947;28;51221;-55
2023/01/15 01:05:32;;;;;;;;;2.00;1.33;;;;;-147.17;100.00;-15917.19;5029427;28;51188;-55
2023/01/15 01:07:58;;;;;;;;;7.67;7.00;;;;;-147.17;100.00;-15917.19;5029359;28;51363;-56
2023/01/15 01:10:24;;;;;;;;;7.67;6.67;;;;;-147.17;100.00;-15917.19;5031343;28;52919;-55
2023/01/15 01:12:51;;;;;;;;;16.75;12.75;;;;;-147.17;100.00;-15917.19;5031547;28;51214;-55
2023/01/15 01:15:21;;;;;;;;;1.00;0.00;;;;;-147.17;100.00;-15917.19;5027963;28;51181;-54
2023/01/15 01:17:46;;;;;;;;;2.00;1.67;;;;;-147.17;100.00;-15917.19;5031761;28;51803;-57
2023/01/15 01:20:13;;;;;;;;;1.33;1.00;;;;;-147.17;100.00;-15917.19;5028553;28;52660;-57
2023/01/15 01:22:39;;;;;;;;;1.33;1.33;;;;;-147.17;100.00;-15917.19;5029364;28;51191;-55
2023/01/15 01:25:05;;;;;;;;;16.75;13.50;;;;;-147.17;100.00;-15917.19;5030227;28;51346;-56
2023/01/15 01:27:31;;;;;;;;;6.50;5.00;;;;;-147.17;100.00;-15917.19;5031454;28;51315;-55
2023/01/15 01:29:56;;;;;;;;;1.00;1.00;;;;;-147.17;100.00;-15917.19;5029512;28;52915;-56
2023/01/15 01:32:22;;;;;;;;;5.33;3.00;;;;;-147.17;100.00;-15917.19;5032764;28;51298;-55
2023/01/15 01:34:47;;;;;;;;;2.33;2.33;;;;;-147.17;100.00;-15917.19;5029878;28;51246;-55
2023/01/15 01:37:13;;;;;;;;;15.25;13.50;;;;;-147.17;100.00;-15917.19;5031783;28;51108;-54
2023/01/15 01:39:39;;;;;;;;;1.00;0.00;;;;;-147.17;100.00;-15917.19;5028447;28;51733;-54
2023/01/15 01:42:12;;;;;;;;;1.00;0.33;;;;;-147.17;100.00;-15917.19;5030829;28;51865;-55
2023/01/15 01:44:37;;;;;;;;;2.00;2.00;;;;;-147.17;100.00;-15917.19;5029918;28;52589;-54
2023/01/15 01:47:19;;;;;;;;;0.00;0.00;;;;;-147.17;100.00;-15917.19;5033049;28;51665;-55
2023/01/15 01:49:46;;;;;;;;;1.00;1.00;;;;;-147.17;100.00;-15917.19;5029100;28;52763;-56
2023/01/15 01:52:17;;;;;;;;;1.00;0.00;;;;;-147.17;100.00;-15917.19;5032515;28;51213;-56
2023/01/15 01:54:46;;;;;;;;;9.67;8.00;;;;;-147.17;100.00;-15917.19;5031945;28;51813;-56
2023/01/15 01:57:12;;;;;;;;;3.50;3.50;;;;;-147.17;100.00;-15917.19;5032747;28;52009;-55
2023/01/15 01:59:38;;;;;;;;;3.67;2.00;;;;;-147.17;100.00;-15917.19;5028324;28;51944;-54
2023/01/15 02:02:05;;;;;;;;;1.00;0.00;;;;;-147.17;100.00;-15917.19;5039155;28;52454;-55
2023/01/15 02:04:30;;;;;;;;;0.67;0.67;;;;;-147.17;100.00;-15917.19;5030837;28;51675;-55
2023/01/15 02:06:59;;;;;;;;;8.33;4.00;;;;;-147.17;100.00;-15917.19;5031238;28;51490;-54
2023/01/15 02:09:24;;;;;;;;;1.00;1.00;;;;;-147.17;100.00;-15917.19;5032022;28;51224;-55
2023/01/15 02:11:56;;;;;;;;;0.00;0.00;;;;;-147.17;100.00;-15917.19;5028103;28;52598;-55
2023/01/15 02:14:34;;;;;;;;;0.00;0.00;;;;;-147.17;100.00;-15917.19;5036294;28;51978;-55
2023/01/15 02:17:30;;;;;;;;;1.00;0.67;;;;;-147.17;100.00;-15917.19;5031106;27;51170;-54
2023/01/15 02:20:14;;;;;;;;;1.00;0.00;;;;;-147.17;100.00;-15917.19;5040601;28;52329;-58
2023/01/15 02:22:58;;;;;;;;;1.00;0.00;;;;;-147.17;100.00;-15917.19;5031300;28;51196;-56
2023/01/15 02:25:36;;;;;;;;;1.00;0.00;;;;;-147.17;100.00;-15917.19;5039763;28;51124;-55
2023/01/15 02:28:15;;;;;;;;;0.00;0.00;;;;;-147.17;100.00;-15917.19;5031179;28;51383;-55
2023/01/15 02:30:46;;;;;;;;;0.00;0.00;;;;;-147.17;100.00;-15917.19;5035282;28;52258;-57
2023/01/15 02:33:19;;;;;;;;;0.00;0.00;;;;;-147.17;100.00;-15917.19;5033098;28;51649;-56
2023/01/15 02:35:48;;;;;;;;;0.00;0.00;;;;;-147.17;100.00;-15917.19;5032460;28;51220;-54
2023/01/15 02:38:19;;;;;;;;;0.00;0.00;;;;;-147.17;100.00;-15917.19;5036864;28;51379;-56
2023/01/15 02:40:47;;;;;;;;;0.00;0.00;;;;;-147.17;100.00;-15917.19;5047089;27;52553;-55
2023/01/15 02:43:16;;;;;;;;;0.00;0.00;;;;;-147.17;100.00;-15917.19;5034464;28;51236;-55
2023/01/15 02:45:45;;;;;;;;;0.00;0.00;;;;;-147.17;100.00;-15917.19;5032485;28;52146;-55
2023/01/15 02:48:18;;;;;;;;;0.00;0.00;;;;;-147.17;100.00;-15917.19;5039361;28;51816;-56
2023/01/15 02:50:51;;;;;;;;;0.00;0.00;;;;;-147.17;100.00;-15917.19;5035137;28;52905;-56
2023/01/15 02:53:22;;;;;;;;;0.00;0.00;;;;;-147.17;100.00;-15917.19;5032686;28;51250;-55
2023/01/15 02:55:50;;;;;;;;;0.00;0.00;;;;;-147.17;100.00;-15917.19;5030332;28;51229;-54
2023/01/15 02:58:21;;;;;;;;;0.00;0.00;;;;;-147.17;100.00;-15917.19;5037130;28;52560;-53
2023/01/15 03:00:51;;;;;;;;;1.00;0.00;;;;;-147.17;100.00;-15917.19;5038305;28;52022;-55
2023/01/15 03:03:35;;;;;;;;;0.00;0.00;;;;;-147.17;100.00;-15917.19;5031851;28;52711;-56
2023/01/15 03:06:16;;;;;;;;;0.00;0.00;;;;;-147.17;100.00;-15917.19;5034811;28;52489;-56
2023/01/15 03:08:42;;;;;;;;;0.00;0.00;;;;;-147.17;100.00;-15917.19;5037430;28;51220;-56
2023/01/15 03:11:10;;;;;;;;;0.00;0.00;;;;;-147.17;100.00;-15917.19;5033064;28;51148;-55
2023/01/15 03:13:35;;;;;;;;;1.00;0.00;;;;;-147.17;100.00;-15917.19;5032453;28;51744;-55
2023/01/15 03:18:55;;;;;;;;;0.00;0.00;;;;;-147.17;100.00;-15917.19;5035069;28;51731;-56
2023/01/15 03:21:26;;;;;;;;;1.00;1.00;;;;;-147.17;100.00;-15917.19;5033068;28;51828;-56
2023/01/15 03:23:55;;;;;;;;;1.00;0.00;;;;;-147.17;100.00;-15917.19;5031593;28;52766;-55
2023/01/15 03:26:20;;;;;;;;;0.00;0.00;;;;;-147.17;100.00;-15917.19;5036423;28;51257;-55
2023/01/15 03:28:47;;;;;;;;;0.00;0.00;;;;;-147.17;100.00;-15917.19;5036353;28;51262;-55
2023/01/15 03:31:13;;;;;;;;;0.00;0.00;;;;;-147.17;100.00;-15917.19;5032151;28;51389;-55
2023/01/15 03:33:40;;;;;;;;;0.00;0.00;;;;;-147.17;100.00;-15917.19;5031784;28;51196;-54
2023/01/15 03:36:06;;;;;;;;;0.00;0.00;;;;;-147.17;100.00;-15917.19;5034025;28;51340;-55
2023/01/15 03:38:34;;;;;;;;;0.00;0.00;;;;;-147.17;100.00;-15917.19;5032707;28;51177;-55
2023/01/15 03:41:13;;;;;;;;;1.00;0.00;;;;;-147.17;100.00;-15917.19;5031397;28;52748;-54
2023/01/15 03:43:49;;;;;;;;;0.00;0.00;;;;;-147.17;100.00;-15917.19;5031759;28;51314;-55
2023/01/15 03:46:51;;;;;;;;;1.00;0.00;;;;;-147.17;100.00;-15917.19;5036001;28;51895;-55
2023/01/15 03:49:21;;;;;;;;;0.00;0.00;;;;;-147.17;100.00;-15917.19;5032457;28;51181;-57
2023/01/15 03:52:10;;;;;;;;;0.00;0.00;;;;;-147.17;100.00;-15917.19;5033631;28;51630;-56
2023/01/15 03:54:42;;;;;;;;;0.00;0.00;;;;;-147.17;100.00;-15917.19;5037501;28;51197;-58
2023/01/15 03:57:18;;;;;;;;;0.00;0.00;;;;;-147.17;100.00;-15917.19;5032140;28;52109;-55
2023/01/15 03:59:53;;;;;;;;;0.00;0.00;;;;;-147.17;100.00;-15917.19;5031977;28;52671;-55
2023/01/15 04:02:20;;;;;;;;;0.00;0.00;;;;;-147.17;100.00;-15917.19;5030269;28;51968;-55
2023/01/15 04:04:48;;;;;;;;;0.00;0.00;;;;;-147.17;100.00;-15917.19;5037767;28;51856;-53
2023/01/15 04:07:14;;;;;;;;;0.00;0.00;;;;;-147.17;100.00;-15917.19;5033014;28;51074;-54
2023/01/15 04:09:40;;;;;;;;;1.00;0.00;;;;;-147.17;100.00;-15917.19;5035886;28;51397;-54
2023/01/15 04:12:06;;;;;;;;;0.00;0.00;;;;;-147.17;100.00;-15917.19;5040259;28;51299;-54
2023/01/15 04:14:32;;;;;;;;;0.00;0.00;;;;;-147.17;100.00;-15917.19;5039588;28;51234;-54
2023/01/15 04:16:58;;;;;;;;;0.00;0.00;;;;;-147.17;100.00;-15917.19;5033966;28;51311;-55
2023/01/15 04:19:23;;;;;;;;;0.00;0.00;;;;;-147.17;100.00;-15917.19;5035171;28;51876;-54
2023/01/15 04:21:48;;;;;;;;;0.00;0.00;;;;;-147.17;100.00;-15917.19;5034764;28;51351;-55
2023/01/15 04:24:14;;;;;;;;;0.00;0.00;;;;;-147.17;100.00;-15917.19;5038516;28;51234;-55
2023/01/15 04:26:39;;;;;;;;;0.67;0.00;;;;;-147.17;100.00;-15917.19;5036419;28;51294;-55
2023/01/15 04:29:04;;;;;;;;;1.00;0.00;;;;;-147.17;100.00;-15917.19;5039019;28;51631;-55
2023/01/15 04:31:32;;;;;;;;;0.00;0.00;;;;;-147.17;100.00;-15917.19;5035314;28;51769;-56
2023/01/15 04:33:57;;;;;;;;;0.00;0.00;;;;;-147.17;100.00;-15917.19;5035383;28;51310;-55
2023/01/15 04:36:23;;;;;;;;;0.00;0.00;;;;;-147.17;100.00;-15917.19;5035504;28;51840;-56
2023/01/15 04:38:48;;;;;;;;;0.00;0.00;;;;;-147.17;100.00;-15917.19;5033289;28;51378;-54
2023/01/15 04:44:07;;;;;;;;;0.00;0.00;;;;;-147.17;100.00;-15917.19;5039404;28;51160;-54
2023/01/15 04:46:42;;;;;;;;;0.00;0.00;;;;;-147.17;100.00;-15917.19;5034760;27;51675;-56
2023/01/15 04:49:10;;;;;;;;;0.67;0.00;;;;;-147.17;100.00;-15917.19;5036725;28;52524;-57
2023/01/15 04:51:38;;;;;;;;;0.00;0.00;;;;;-147.17;100.00;-15917.19;5038931;28;52320;-53
2023/01/15 04:54:05;;;;;;;;;0.00;0.00;;;;;-147.17;100.00;-15917.19;5034458;28;53039;-55
2023/01/15 04:56:31;;;;;;;;;0.00;0.00;;;;;-147.17;100.00;-15917.19;5034187;28;52742;-56
2023/01/15 04:59:00;;;;;;;;;0.00;0.00;;;;;-147.17;100.00;-15917.19;5034854;28;51571;-55
2023/01/15 05:01:26;;;;;;;;;1.00;0.00;;;;;-147.17;100.00;-15917.19;5048632;28;51987;-53
2023/01/15 05:03:51;;;;;;;;;0.00;0.00;;;;;-147.17;100.00;-15917.19;5034452;28;51271;-56
2023/01/15 05:06:17;;;;;;;;;0.00;0.00;;;;;-147.17;100.00;-15917.19;5035145;28;51149;-55
2023/01/15 05:08:43;;;;;;;;;0.00;0.00;;;;;-147.17;100.00;-15917.19;5035697;28;51183;-55
2023/01/15 05:11:08;;;;;;;;;0.00;0.00;;;;;-147.17;100.00;-15917.19;5038622;28;52266;-54
2023/01/15 05:13:34;;;;;;;;;0.00;0.00;;;;;-147.17;100.00;-15917.19;5033879;28;51975;-55
2023/01/15 05:16:22;;;;;;;;;0.00;0.00;;;;;-147.17;100.00;-15917.19;5034709;28;51278;-55
2023/01/15 05:18:47;;;;;;;;;0.00;0.00;;;;;-147.17;100.00;-15917.19;5036040;28;51290;-55
2023/01/15 05:21:23;;;;;;;;;0.00;0.00;;;;;-147.17;100.00;-15917.19;5038993;28;51687;-53
2023/01/15 05:23:50;;;;;;;;;0.00;0.00;;;;;-147.17;100.00;-15917.19;5033730;28;51152;-53
2023/01/15 05:26:17;;;;;;;;;0.00;0.00;;;;;-147.17;100.00;-15917.19;5035265;28;51583;-54
2023/01/15 05:28:43;;;;;;;;;0.00;0.00;;;;;-147.17;100.00;-15917.19;5032982;28;51663;-53
2023/01/15 05:31:14;;;;;;;;;0.00;0.00;;;;;-147.17;100.00;-15917.19;5042762;28;51704;-54
2023/01/15 05:33:40;;;;;;;;;0.00;0.00;;;;;-147.17;100.00;-15917.19;5035170;28;51753;-54
2023/01/15 05:36:11;;;;;;;;;0.00;0.00;;;;;-147.17;100.00;-15917.19;5034153;28;51450;-54
2023/01/15 05:38:38;;;;;;;;;0.00;0.00;;;;;-147.17;100.00;-15917.19;5035489;28;51322;-56
2023/01/15 05:43:55;;;;;;;;;0.00;0.00;;;;;-147.17;100.00;-15917.19;5040314;28;51797;-56
2023/01/15 05:46:21;;;;;;;;;0.00;0.00;;;;;-147.17;100.00;-15917.19;5033500;28;51402;-55
2023/01/15 05:48:47;;;;;;;;;1.00;0.00;;;;;-147.17;100.00;-15917.19;5040379;28;51672;-55
2023/01/15 05:51:12;;;;;;;;;0.00;0.00;;;;;-147.17;100.00;-15917.19;5034419;27;51670;-54
2023/01/15 05:53:38;;;;;;;;;0.00;0.00;;;;;-147.17;100.00;-15917.19;5033310;28;51231;-54
2023/01/15 05:56:04;;;;;;;;;0.00;0.00;;;;;-147.17;100.00;-15917.19;5033065;28;51725;-56
2023/01/15 05:58:29;;;;;;;;;0.00;0.00;;;;;-147.17;100.00;-15917.19;5039168;28;51838;-55
2023/01/15 06:00:55;;;;;;;;;0.00;0.00;;;;;-147.17;100.00;-15917.19;5033277;28;51265;-55
2023/01/15 06:03:22;;;;;;;;;0.00;0.00;;;;;-147.17;100.00;-15917.19;5033001;28;51191;-54
2023/01/15 06:05:55;;;;;;;;;0.00;0.00;;;;;-147.17;100.00;-15917.19;5032629;28;51187;-54
2023/01/15 06:08:21;;;;;;;;;0.00;0.00;;;;;-147.17;100.00;-15917.19;5046522;28;51182;-56
2023/01/15 06:10:47;;;;;;;;;0.00;0.00;;;;;-147.17;100.00;-15917.19;5054660;28;52047;-55
2023/01/15 06:13:14;;;;;;;;;1.00;1.00;;;;;-147.17;100.00;-15917.19;5062269;28;51053;-54
2023/01/15 06:15:40;;;;;;;;;0.00;0.00;;;;;-147.17;100.00;-15917.19;5057313;28;51179;-54
2023/01/15 06:18:06;;;;;;;;;0.00;0.00;;;;;-147.17;100.00;-15917.19;5066145;28;51241;-55
2023/01/15 06:20:34;;;;;;;;;0.00;0.00;;;;;-147.17;100.00;-15917.19;5049114;28;51988;-54
2023/01/15 06:23:00;;;;;;;;;0.00;0.00;;;;;-147.17;100.00;-15917.19;5061585;28;50984;-56
2023/01/15 06:25:25;;;;;;;;;0.00;0.00;;;;;-147.17;100.00;-15917.19;5060294;28;51140;-54
2023/01/15 06:27:50;;;;;;;;;0.00;0.00;;;;;-147.17;100.00;-15917.19;5062365;27;51287;-55
2023/01/15 06:30:16;;;;;;;;;0.00;0.00;;;;;-147.17;100.00;-15917.19;5055041;28;51879;-55
2023/01/15 06:32:41;;;;;;;;;0.00;0.00;;;;;-147.17;100.00;-15917.19;5056771;28;51205;-56
2023/01/15 06:35:07;;;;;;;;;1.00;0.00;;;;;-147.17;100.00;-15917.19;5052584;28;51222;-55
2023/01/15 06:37:32;;;;;;;;;0.00;0.00;;;;;-147.17;100.00;-15917.19;5054756;28;51392;-56
2023/01/15 06:39:58;;;;;;;;;0.00;0.00;;;;;-147.17;100.00;-15917.19;5053502;28;51172;-54
2023/01/15 06:47:56;;;;;;;;;0.00;0.00;;;;;-147.17;100.00;-15917.19;5053265;28;51194;-56
2023/01/15 06:50:22;;;;;;;;;0.00;0.00;;;;;-147.17;100.00;-15917.19;5049952;27;51160;-54
2023/01/15 06:52:48;;;;;;;;;0.00;0.00;;;;;-147.17;100.00;-15917.19;5049622;28;51152;-56
2023/01/15 06:55:13;;;;;;;;;0.00;0.00;;;;;-147.17;100.00;-15917.19;5057543;28;51270;-56
2023/01/15 06:57:40;;;;;;;;;0.00;0.00;;;;;-147.17;100.00;-15917.19;5048150;27;50955;-55
2023/01/15 07:00:09;;;;;;;;;0.00;0.00;;;;;-147.17;100.00;-15917.19;5049622;28;52113;-55
2023/01/15 07:02:35;;;;;;;;;0.00;0.00;;;;;-147.17;100.00;-15917.19;5042855;28;51204;-54
2023/01/15 07:05:00;;;;;;;;;0.00;0.00;;;;;-147.17;100.00;-15917.19;5041378;28;51143;-53
2023/01/15 07:07:27;;;;;;;;;0.00;0.00;;;;;-147.17;100.00;-15917.19;5043972;27;51267;-56
2023/01/15 07:09:53;;;;;;;;;0.00;0.00;;;;;-147.17;100.00;-15917.19;5038733;28;52084;-55
2023/01/15 07:12:18;;;;;;;;;0.00;0.00;;;;;-147.17;100.00;-15917.19;5051786;27;51218;-53
2023/01/15 07:14:43;;;;;;;;;0.00;0.00;;;;;-147.17;100.00;-15917.19;5059691;27;52126;-55
2023/01/15 07:17:09;;;;;;;;;0.00;0.00;;;;;-147.17;100.00;-15917.19;5052643;28;51412;-53
2023/01/15 07:19:35;;;;;;;;;0.00;0.00;;;;;-147.17;100.00;-15917.19;5059990;28;51194;-55
2023/01/15 07:22:00;;;;;;;;;0.00;0.00;;;;;-147.17;100.00;-15917.19;5061869;27;51044;-55
2023/01/15 07:24:26;;;;;;;;;0.00;0.00;;;;;-147.17;100.00;-15917.19;5050446;28;51229;-55
2023/01/15 07:26:51;;;;;;;;;0.00;0.00;;;;;-147.17;100.00;-15917.19;5053965;28;51083;-55
2023/01/15 07:29:16;;;;;;;;;1.00;0.00;;;;;-147.17;100.00;-15917.19;5052067;28;52116;-55
2023/01/15 07:31:42;;;;;;;;;0.00;0.00;;;;;-147.17;100.00;-15917.19;5062056;27;51159;-55
2023/01/15 07:34:08;;;;;;;;;0.00;0.00;;;;;-147.17;100.00;-15917.19;5055861;27;51081;-55
2023/01/15 07:36:34;;;;;;;;;0.00;0.00;;;;;-147.17;100.00;-15917.19;5048815;27;51248;-55
2023/01/15 07:39:03;;;;;;;;;0.75;0.00;;;;;-147.17;100.00;-15917.19;5057454;27;52824;-55
2023/01/15 07:49:49;;;;;;;;;0.67;0.00;;;;;-147.17;100.00;-15917.19;5046425;28;51525;-55
2023/01/15 07:52:19;;;;;;;;;0.33;0.00;;;;;-147.17;100.00;-15917.19;5050427;28;51173;-54
2023/01/15 07:54:47;;;;;;;;;1.00;0.00;;;;;-147.17;100.00;-15917.19;5052059;28;51215;-55
2023/01/15 07:57:16;;;;;;;;;0.00;0.00;;;;;-147.17;100.00;-15917.19;5055856;28;51176;-57
2023/01/15 07:59:42;;;;;;;;;0.00;0.00;;;;;-147.17;100.00;-15917.19;5056268;27;51980;-55
2023/01/15 08:02:07;;;;;;;;;0.00;0.00;;;;;-147.17;100.00;-15917.19;5051345;27;51642;-55
2023/01/15 08:04:32;;;;;;;;;0.00;0.00;;;;;-147.17;100.00;-15917.19;5051323;28;51299;-53
2023/01/15 08:07:00;;;;;;;;;0.00;0.00;;;;;-147.17;100.00;-15917.19;5045551;28;51022;-54
2023/01/15 08:09:26;;;;;;;;;0.00;0.00;;;;;-147.17;100.00;-15917.19;5055545;28;51885;-53
2023/01/15 08:17:19;;;;;;;;;0.75;0.25;;;;;-147.17;100.00;-15917.19;5056126;28;51034;-55
2023/01/15 08:19:44;;;;;;;;;1.00;0.00;;;;;-147.17;100.00;-15917.19;5047689;27;51682;-55
2023/01/15 08:22:10;;;;;;;;;0.00;0.00;;;;;-147.17;100.00;-15917.19;5052766;27;51148;-54
2023/01/15 08:24:35;;;;;;;;;0.25;0.00;;;;;-147.17;100.00;-15917.19;5052473;28;51211;-56
2023/01/15 08:27:01;;;;;;;;;0.00;0.00;;;;;-147.17;100.00;-15917.19;5056832;27;51322;-55
2023/01/15 08:29:27;;;;;;;;;0.00;0.00;;;;;-147.17;100.00;-15917.19;5054678;28;51155;-56
2023/01/15 08:31:52;;;;;;;;;0.00;0.00;;;;;-147.17;100.00;-15917.19;5058743;28;51202;-54
2023/01/15 08:34:18;;;;;;;;;2.25;1.00;;;;;-147.17;100.00;-15917.19;5053646;27;51266;-54
2023/01/15 08:36:44;;;;;;;;;0.00;0.00;;;;;-147.17;100.00;-15917.19;5057462;28;51449;-53
2023/01/15 08:39:09;;;;;;;;;0.00;0.00;;;;;-147.17;100.00;-15917.19;5067279;28;51178;-55
2023/01/15 08:41:35;;;;;;;;;1.00;0.00;;;;;-147.17;100.00;-15917.19;5059676;27;51069;-54
2023/01/15 08:44:00;;;;;;;;;1.50;1.00;;;;;-147.17;100.00;-15917.19;5064022;28;51473;-59
2023/01/15 08:46:25;;;;;;;;;0.00;0.00;;;;;-147.17;100.00;-15917.19;5049775;28;51942;-54
2023/01/15 08:48:52;;;;;;;;;0.00;0.00;;;;;-147.17;100.00;-15917.19;5064089;28;51851;-54
2023/01/15 08:51:18;;;;;;;;;0.00;0.00;;;;;-147.17;100.00;-15917.19;5052431;28;51661;-53
2023/01/15 08:53:43;;;;;;;;;0.00;0.00;;;;;-147.17;100.00;-15917.19;5059941;28;51374;-54
2023/01/15 08:56:16;;;;;;;;;2.00;0.75;;;;;-147.17;100.00;-15917.19;5044151;27;51154;-54
2023/01/15 08:58:42;;;;;;;;;0.00;0.00;;;;;-147.17;100.00;-15917.19;5055658;28;52802;-54
2023/01/15 09:01:10;;;;;;;;;0.25;0.00;;;;;-147.17;100.00;-15917.19;5059118;27;51526;-56
2023/01/15 09:03:36;;;;;;;;;1.00;0.00;;;;;-147.17;100.00;-15917.19;5057171;28;51114;-54
2023/01/15 09:06:03;;;;;;;;;1.00;0.00;;;;;-147.17;100.00;-15917.19;5052655;28;51680;-55
2023/01/15 09:08:28;;;;;;;;;1.00;1.00;;;;;-147.17;100.00;-15917.19;5050168;28;52004;-55
2023/01/15 09:10:58;;;;;;;;;0.75;0.00;;;;;-147.17;100.00;-15917.19;5059243;27;51482;-54
2023/01/15 09:13:24;;;;;;;;;0.75;0.00;;;;;-147.17;100.00;-15917.19;5059887;28;51653;-54
2023/01/15 09:15:50;;;;;;;;;1.00;0.00;;;;;-147.17;100.00;-15917.19;5052914;28;51115;-54
2023/01/15 09:18:18;;;;;;;;;0.67;0.67;;;;;-147.17;100.00;-15917.19;5065278;28;52045;-55
2023/01/15 09:20:44;;;;;;;;;0.00;0.00;;;;;-147.17;100.00;-15917.19;5054281;28;51081;-55
2023/01/15 09:23:09;;;;;;;;;1.00;1.00;;;;;-147.17;100.00;-15917.19;5070905;28;51223;-55
2023/01/15 09:25:35;;;;;;;;;0.00;0.00;;;;;-147.17;100.00;-15917.19;5067010;27;51293;-55
2023/01/15 09:28:00;;;;;;;;;1.00;0.00;;;;;-147.17;100.00;-15917.19;5057638;27;51256;-54
2023/01/15 09:30:25;;;;;;;;;0.00;0.00;;;;;-147.17;100.00;-15917.19;5066466;28;51094;-55
2023/01/15 09:32:51;;;;;;;;;0.00;0.00;;;;;-147.17;100.00;-15917.19;5073012;28;51144;-55
2023/01/15 09:35:16;;;;;;;;;1.00;0.50;;;;;-147.17;100.00;-15917.19;5071211;27;51405;-54
2023/01/15 09:37:42;;;;;;;;;1.50;1.50;;;;;-147.17;100.00;-15917.19;5054742;27;51946;-57
2023/01/15 09:40:28;;;;;;;;;0.00;0.00;;;;;-147.17;100.00;-15917.19;5041183;28;51138;-55
2023/01/15 09:43:04;;;;;;;;;0.00;0.00;;;;;-147.17;100.00;-15917.19;5049619;28;51109;-55
2023/01/15 09:45:36;;;;;;;;;1.67;1.00;;;;;-147.17;100.00;-15917.19;5062506;28;51086;-57
2023/01/15 09:48:07;;;;;;;;;1.00;0.00;;;;;-147.17;100.00;-15917.19;5057462;28;51997;-54
2023/01/15 09:51:02;;;;;;;;;0.00;0.00;;;;;-147.17;100.00;-15917.19;5059462;27;51392;-54
2023/01/15 09:53:43;;;;;;;;;3.00;2.00;;;;;-147.17;100.00;-15917.19;5067945;28;51726;-56
2023/01/15 09:56:18;;;;;;;;;0.00;0.00;;;;;-147.17;100.00;-15917.19;5058488;28;51130;-55
2023/01/15 09:58:43;;;;;;;;;1.00;1.00;;;;;-147.17;100.00;-15917.19;5056117;27;52174;-55
2023/01/15 10:01:15;;;;;;;;;1.00;0.33;;;;;-147.17;100.00;-15917.19;5059634;28;51118;-55
2023/01/15 10:03:56;;;;;;;;;0.00;0.00;;;;;-147.17;100.00;-15917.19;5066121;28;51080;-55
2023/01/15 10:06:30;;;;;;;;;0.67;0.67;;;;;-147.17;100.00;-15917.19;5064796;27;51452;-55
2023/01/15 10:09:13;;;;;;;;;1.00;1.00;;;;;-147.17;100.00;-15917.19;5059108;28;50956;-55
2023/01/15 10:14:39;;;;;;;;;1.00;0.00;;;;;-147.17;100.00;-15917.19;5043132;28;51267;-54
2023/01/15 10:17:33;;;;;;;;;0.00;0.00;;;;;-147.17;100.00;-15917.19;5041650;28;51414;-55
2023/01/15 10:19:59;;;;;;;;;1.00;0.00;;;;;-147.17;100.00;-15917.19;5047609;28;51912;-53
2023/01/15 10:22:47;;;;;;;;;1.00;0.25;;;;;-147.17;100.00;-15917.19;5061021;28;50971;-53
2023/01/15 10:25:25;;;;;;;;;1.00;0.00;;;;;-147.17;100.00;-15917.19;5053259;28;51156;-56
2023/01/15 10:27:51;;;;;;;;;3.00;1.00;;;;;-147.17;100.00;-15917.19;5046311;28;51294;-56
2023/01/15 10:30:24;;;;;;;;;0.50;0.50;;;;;-147.17;100.00;-15917.19;5041283;28;51623;-55
2023/01/15 10:32:55;;;;;;;;;0.00;0.00;;;;;-147.17;100.00;-15917.19;5071248;28;50962;-54
2023/01/15 10:35:20;;;;;;;;;1.00;0.00;;;;;-147.17;100.00;-15917.19;5070390;27;51057;-55
2023/01/15 10:37:55;;;;;;;;;0.25;0.00;;;;;-147.17;100.00;-15917.19;5051332;28;51477;-55
2023/01/15 10:40:29;;;;;;;;;1.67;1.00;;;;;-147.17;100.00;-15917.19;5064764;28;51833;-54
2023/01/15 10:43:21;;;;;;;;;2.00;1.50;;;;;-147.17;100.00;-15917.19;5064248;27;51191;-54
2023/01/15 10:45:52;;;;;;;;;1.00;1.00;;;;;-147.17;100.00;-15917.19;5030967;28;51246;-53
2023/01/15 10:48:29;;;;;;;;;1.00;1.00;;;;;-147.17;100.00;-15917.19;5046700;28;51168;-54
2023/01/15 10:51:01;;;;;;;;;1.50;0.50;;;;;-147.17;100.00;-15917.19;5034305;28;52457;-54
2023/01/15 10:53:55;;;;;;;;;2.00;1.00;;;;;-147.17;100.00;-15917.19;5043817;28;51437;-53
2023/01/15 10:56:20;;;;;;;;;1.00;1.00;;;;;-147.17;100.00;-15917.19;5044723;28;51360;-52
2023/01/15 10:59:10;;;;;;;;;0.00;0.00;;;;;-147.17;100.00;-15917.19;5055131;28;51207;-55
2023/01/15 11:01:39;;;;;;;;;0.00;0.00;;;;;-147.17;100.00;-15917.19;5047708;28;51570;-54
2023/01/15 11:04:07;;;;;;;;;1.67;1.00;;;;;-147.17;100.00;-15917.19;5052710;28;51180;-54
2023/01/15 11:06:33;;;;;;;;;1.33;0.67;;;;;-147.17;100.00;-15917.19;5049870;28;51421;-53
2023/01/15 11:08:59;;;;;;;;;1.00;1.00;;;;;-147.17;100.00;-15917.19;5052843;28;51357;-54
2023/01/15 11:19:36;;;;;;;;;0.33;0.33;;;;;-147.17;100.00;-15917.19;5059942;28;51146;-52
2023/01/15 11:22:08;;;;;;;;;2.50;1.00;;;;;-147.17;100.00;-15917.19;5050797;28;52939;-52
2023/01/15 11:24:47;;;;;;;;;1.00;1.00;;;;;-147.17;100.00;-15917.19;5052159;28;51602;-52
2023/01/15 11:27:25;;;;;;;;;1.33;1.00;;;;;-147.17;100.00;-15917.19;5047601;28;51391;-51
2023/01/15 11:29:53;;;;;;;;;1.00;1.00;;;;;-147.17;100.00;-15917.19;5045166;28;50983;-52
2023/01/15 11:32:31;;;;;;;;;2.00;1.00;;;;;-147.17;100.00;-15917.19;5044079;28;53048;-52
2023/01/15 11:35:02;;;;;;;;;0.00;0.00;;;;;-147.17;100.00;-15917.19;5049140;28;51381;-51
2023/01/15 11:37:28;;;;;;;;;0.00;0.00;;;;;-147.17;100.00;-15917.19;5051952;28;51224;-51
2023/01/15 11:39:55;;;;;;;;;1.00;0.67;;;;;-147.17;100.00;-15917.19;5043888;28;51097;-52
2023/01/15 11:50:51;;;;;;;;;5.67;4.67;;;;;-147.17;100.00;-15917.19;5037261;28;51158;-55
2023/01/15 11:53:24;;;;;;;;;1.00;1.00;;;;;-147.17;100.00;-15917.19;5044486;28;51432;-55
2023/01/15 11:56:01;;;;;;;;;1.00;1.00;;;;;-147.17;100.00;-15917.19;5048383;28;51518;-55
2023/01/15 11:58:30;;;;;;;;;2.00;2.00;;;;;-147.17;100.00;-15917.19;5069089;28;51095;-55
2023/01/15 12:00:59;;;;;;;;;3.00;2.00;;;;;-147.17;100.00;-15917.19;5070110;28;50988;-56
2023/01/15 12:03:28;;;;;;;;;1.00;0.67;;;;;-147.17;100.00;-15917.19;5061036;27;51820;-53